sensor_id;sensor_type;location;lat;lon;timestamp;P1;durP1;ratioP1;P2;durP2;ratioP2
17618;SDS011;8928;51.678;6.074;2022-11-11T00:02:25;17.43;;;6.80;;
17618;SDS011;8928;51.678;6.074;2022-11-11T00:05:12;20.50;;;7.10;;
17618;SDS011;8928;51.678;6.074;2022-11-11T00:08:00;20.67;;;6.57;;
17618;SDS011;8928;51.678;6.074;2022-11-11T00:10:47;17.13;;;6.90;;
17618;SDS011;8928;51.678;6.074;2022-11-11T00:13:34;14.50;;;6.57;;
17618;SDS011;8928;51.678;6.074;2022-11-11T00:16:22;14.33;;;7.00;;
17618;SDS011;8928;51.678;6.074;2022-11-11T00:19:10;23.87;;;7.47;;
17618;SDS011;8928;51.678;6.074;2022-11-11T00:22:18;19.67;;;8.03;;
17618;SDS011;8928;51.678;6.074;2022-11-11T00:25:23;18.07;;;7.43;;
17618;SDS011;8928;51.678;6.074;2022-11-11T00:28:10;22.90;;;7.87;;
17618;SDS011;8928;51.678;6.074;2022-11-11T00:31:01;23.03;;;7.43;;
17618;SDS011;8928;51.678;6.074;2022-11-11T00:33:51;18.53;;;7.83;;
17618;SDS011;8928;51.678;6.074;2022-11-11T00:36:39;25.70;;;8.10;;
17618;SDS011;8928;51.678;6.074;2022-11-11T00:39:25;22.70;;;8.10;;
17618;SDS011;8928;51.678;6.074;2022-11-11T00:42:12;20.37;;;7.60;;
17618;SDS011;8928;51.678;6.074;2022-11-11T00:44:59;27.30;;;7.83;;
17618;SDS011;8928;51.678;6.074;2022-11-11T00:47:47;18.60;;;7.53;;
17618;SDS011;8928;51.678;6.074;2022-11-11T00:50:51;21.07;;;7.57;;
17618;SDS011;8928;51.678;6.074;2022-11-11T00:53:45;26.10;;;8.57;;
17618;SDS011;8928;51.678;6.074;2022-11-11T00:56:32;29.00;;;8.93;;
17618;SDS011;8928;51.678;6.074;2022-11-11T00:59:20;20.20;;;8.07;;
17618;SDS011;8928;51.678;6.074;2022-11-11T01:02:07;21.87;;;8.67;;
17618;SDS011;8928;51.678;6.074;2022-11-11T01:04:54;25.50;;;9.63;;
17618;SDS011;8928;51.678;6.074;2022-11-11T01:07:41;26.10;;;9.77;;
17618;SDS011;8928;51.678;6.074;2022-11-11T01:10:30;20.87;;;8.77;;
17618;SDS011;8928;51.678;6.074;2022-11-11T01:13:24;20.00;;;8.50;;
17618;SDS011;8928;51.678;6.074;2022-11-11T01:16:13;20.37;;;8.40;;
17618;SDS011;8928;51.678;6.074;2022-11-11T01:19:01;23.17;;;8.57;;
17618;SDS011;8928;51.678;6.074;2022-11-11T01:21:48;19.13;;;8.23;;
17618;SDS011;8928;51.678;6.074;2022-11-11T01:24:35;25.80;;;8.50;;
17618;SDS011;8928;51.678;6.074;2022-11-11T01:27:24;22.50;;;9.20;;
17618;SDS011;8928;51.678;6.074;2022-11-11T01:30:11;30.90;;;10.90;;
17618;SDS011;8928;51.678;6.074;2022-11-11T01:32:58;27.50;;;10.93;;
17618;SDS011;8928;51.678;6.074;2022-11-11T01:35:45;25.90;;;11.57;;
17618;SDS011;8928;51.678;6.074;2022-11-11T01:38:32;25.93;;;11.70;;
17618;SDS011;8928;51.678;6.074;2022-11-11T01:41:21;30.70;;;12.57;;
17618;SDS011;8928;51.678;6.074;2022-11-11T01:47:28;31.67;;;13.90;;
17618;SDS011;8928;51.678;6.074;2022-11-11T01:50:37;36.30;;;15.53;;
17618;SDS011;8928;51.678;6.074;2022-11-11T01:53:23;39.67;;;15.63;;
17618;SDS011;8928;51.678;6.074;2022-11-11T01:56:10;33.67;;;15.57;;
17618;SDS011;8928;51.678;6.074;2022-11-11T01:58:59;35.97;;;16.43;;
17618;SDS011;8928;51.678;6.074;2022-11-11T02:01:52;35.10;;;15.93;;
17618;SDS011;8928;51.678;6.074;2022-11-11T02:04:39;33.67;;;16.37;;
17618;SDS011;8928;51.678;6.074;2022-11-11T02:07:44;34.03;;;16.57;;
17618;SDS011;8928;51.678;6.074;2022-11-11T02:10:32;38.23;;;16.90;;
17618;SDS011;8928;51.678;6.074;2022-11-11T02:13:19;32.53;;;16.80;;
17618;SDS011;8928;51.678;6.074;2022-11-11T02:16:24;36.47;;;16.47;;
17618;SDS011;8928;51.678;6.074;2022-11-11T02:19:13;39.00;;;17.47;;
17618;SDS011;8928;51.678;6.074;2022-11-11T02:22:03;34.47;;;16.63;;
17618;SDS011;8928;51.678;6.074;2022-11-11T02:24:57;34.73;;;16.80;;
17618;SDS011;8928;51.678;6.074;2022-11-11T02:27:46;39.20;;;17.13;;
17618;SDS011;8928;51.678;6.074;2022-11-11T02:30:36;32.97;;;16.93;;
17618;SDS011;8928;51.678;6.074;2022-11-11T02:33:23;39.70;;;17.67;;
17618;SDS011;8928;51.678;6.074;2022-11-11T02:36:11;36.63;;;17.87;;
17618;SDS011;8928;51.678;6.074;2022-11-11T02:39:00;41.37;;;18.83;;
17618;SDS011;8928;51.678;6.074;2022-11-11T02:41:49;43.20;;;19.33;;
17618;SDS011;8928;51.678;6.074;2022-11-11T02:44:41;42.13;;;19.43;;
17618;SDS011;8928;51.678;6.074;2022-11-11T02:47:29;46.20;;;19.73;;
17618;SDS011;8928;51.678;6.074;2022-11-11T02:50:16;48.63;;;20.23;;
17618;SDS011;8928;51.678;6.074;2022-11-11T02:53:03;46.23;;;21.13;;
17618;SDS011;8928;51.678;6.074;2022-11-11T02:55:50;43.07;;;20.63;;
17618;SDS011;8928;51.678;6.074;2022-11-11T02:58:38;47.33;;;21.03;;
17618;SDS011;8928;51.678;6.074;2022-11-11T03:01:25;45.27;;;20.67;;
17618;SDS011;8928;51.678;6.074;2022-11-11T03:04:12;46.63;;;20.23;;
17618;SDS011;8928;51.678;6.074;2022-11-11T03:06:59;44.07;;;20.53;;
17618;SDS011;8928;51.678;6.074;2022-11-11T03:09:46;45.57;;;20.30;;
17618;SDS011;8928;51.678;6.074;2022-11-11T03:12:33;42.63;;;19.90;;
17618;SDS011;8928;51.678;6.074;2022-11-11T03:15:22;42.33;;;18.73;;
17618;SDS011;8928;51.678;6.074;2022-11-11T03:18:09;38.10;;;17.97;;
17618;SDS011;8928;51.678;6.074;2022-11-11T03:20:55;40.93;;;18.43;;
17618;SDS011;8928;51.678;6.074;2022-11-11T03:23:51;34.03;;;17.07;;
17618;SDS011;8928;51.678;6.074;2022-11-11T03:26:38;36.73;;;16.73;;
17618;SDS011;8928;51.678;6.074;2022-11-11T03:29:25;35.53;;;16.87;;
17618;SDS011;8928;51.678;6.074;2022-11-11T03:32:13;32.70;;;16.30;;
17618;SDS011;8928;51.678;6.074;2022-11-11T03:35:01;32.70;;;16.40;;
17618;SDS011;8928;51.678;6.074;2022-11-11T03:37:48;31.00;;;16.03;;
17618;SDS011;8928;51.678;6.074;2022-11-11T03:40:53;38.63;;;16.33;;
17618;SDS011;8928;51.678;6.074;2022-11-11T03:43:41;33.73;;;16.43;;
17618;SDS011;8928;51.678;6.074;2022-11-11T03:46:28;31.67;;;16.73;;
17618;SDS011;8928;51.678;6.074;2022-11-11T03:49:17;40.30;;;19.17;;
17618;SDS011;8928;51.678;6.074;2022-11-11T03:52:04;39.97;;;19.67;;
17618;SDS011;8928;51.678;6.074;2022-11-11T03:54:51;41.27;;;19.60;;
17618;SDS011;8928;51.678;6.074;2022-11-11T03:57:39;38.63;;;19.53;;
17618;SDS011;8928;51.678;6.074;2022-11-11T04:00:29;37.73;;;18.53;;
17618;SDS011;8928;51.678;6.074;2022-11-11T04:03:17;37.73;;;17.17;;
17618;SDS011;8928;51.678;6.074;2022-11-11T04:06:23;37.37;;;18.07;;
17618;SDS011;8928;51.678;6.074;2022-11-11T04:09:28;39.13;;;18.90;;
17618;SDS011;8928;51.678;6.074;2022-11-11T04:12:32;44.50;;;19.10;;
17618;SDS011;8928;51.678;6.074;2022-11-11T04:15:41;46.70;;;19.37;;
17618;SDS011;8928;51.678;6.074;2022-11-11T04:18:45;42.73;;;19.13;;
17618;SDS011;8928;51.678;6.074;2022-11-11T04:21:51;40.87;;;17.90;;
17618;SDS011;8928;51.678;6.074;2022-11-11T04:24:38;40.13;;;17.77;;
17618;SDS011;8928;51.678;6.074;2022-11-11T04:27:43;40.50;;;16.10;;
17618;SDS011;8928;51.678;6.074;2022-11-11T04:30:30;30.60;;;13.00;;
17618;SDS011;8928;51.678;6.074;2022-11-11T04:33:16;26.07;;;12.43;;
17618;SDS011;8928;51.678;6.074;2022-11-11T04:36:03;22.40;;;10.77;;
17618;SDS011;8928;51.678;6.074;2022-11-11T04:38:52;21.03;;;11.00;;
17618;SDS011;8928;51.678;6.074;2022-11-11T04:41:57;19.63;;;10.03;;
17618;SDS011;8928;51.678;6.074;2022-11-11T04:44:44;23.70;;;9.97;;
17618;SDS011;8928;51.678;6.074;2022-11-11T04:47:52;22.90;;;10.37;;
17618;SDS011;8928;51.678;6.074;2022-11-11T04:50:41;20.63;;;9.97;;
17618;SDS011;8928;51.678;6.074;2022-11-11T04:53:29;21.33;;;9.73;;
17618;SDS011;8928;51.678;6.074;2022-11-11T04:56:17;21.13;;;9.80;;
17618;SDS011;8928;51.678;6.074;2022-11-11T04:59:27;23.73;;;10.63;;
17618;SDS011;8928;51.678;6.074;2022-11-11T05:02:14;24.30;;;9.97;;
17618;SDS011;8928;51.678;6.074;2022-11-11T05:05:19;26.10;;;10.53;;
17618;SDS011;8928;51.678;6.074;2022-11-11T05:08:06;23.30;;;11.67;;
17618;SDS011;8928;51.678;6.074;2022-11-11T05:11:11;26.03;;;11.30;;
17618;SDS011;8928;51.678;6.074;2022-11-11T05:14:00;25.17;;;11.43;;
17618;SDS011;8928;51.678;6.074;2022-11-11T05:17:07;31.87;;;11.73;;
17618;SDS011;8928;51.678;6.074;2022-11-11T05:20:13;29.17;;;11.80;;
17618;SDS011;8928;51.678;6.074;2022-11-11T05:23:17;26.97;;;11.43;;
17618;SDS011;8928;51.678;6.074;2022-11-11T05:26:04;29.90;;;11.53;;
17618;SDS011;8928;51.678;6.074;2022-11-11T05:28:50;22.77;;;10.97;;
17618;SDS011;8928;51.678;6.074;2022-11-11T05:31:39;30.33;;;11.23;;
17618;SDS011;8928;51.678;6.074;2022-11-11T05:34:26;24.43;;;10.33;;
17618;SDS011;8928;51.678;6.074;2022-11-11T05:37:13;25.07;;;11.13;;
17618;SDS011;8928;51.678;6.074;2022-11-11T05:40:00;30.00;;;11.27;;
17618;SDS011;8928;51.678;6.074;2022-11-11T05:42:47;24.70;;;10.37;;
17618;SDS011;8928;51.678;6.074;2022-11-11T05:45:34;23.63;;;10.40;;
17618;SDS011;8928;51.678;6.074;2022-11-11T05:48:23;25.13;;;10.50;;
17618;SDS011;8928;51.678;6.074;2022-11-11T05:51:10;26.00;;;10.17;;
17618;SDS011;8928;51.678;6.074;2022-11-11T05:54:12;25.80;;;10.30;;
17618;SDS011;8928;51.678;6.074;2022-11-11T05:57:00;25.40;;;10.57;;
17618;SDS011;8928;51.678;6.074;2022-11-11T05:59:48;25.77;;;10.00;;
17618;SDS011;8928;51.678;6.074;2022-11-11T06:02:35;26.73;;;9.87;;
17618;SDS011;8928;51.678;6.074;2022-11-11T06:05:23;25.53;;;10.73;;
17618;SDS011;8928;51.678;6.074;2022-11-11T06:08:10;26.67;;;10.90;;
17618;SDS011;8928;51.678;6.074;2022-11-11T06:10:58;24.77;;;10.07;;
17618;SDS011;8928;51.678;6.074;2022-11-11T06:13:45;26.40;;;10.03;;
17618;SDS011;8928;51.678;6.074;2022-11-11T06:16:32;23.17;;;10.30;;
17618;SDS011;8928;51.678;6.074;2022-11-11T06:19:20;22.77;;;9.70;;
17618;SDS011;8928;51.678;6.074;2022-11-11T06:22:08;22.97;;;10.70;;
17618;SDS011;8928;51.678;6.074;2022-11-11T06:24:55;24.83;;;10.70;;
17618;SDS011;8928;51.678;6.074;2022-11-11T06:28:02;20.83;;;9.77;;
17618;SDS011;8928;51.678;6.074;2022-11-11T06:30:50;22.37;;;9.47;;
17618;SDS011;8928;51.678;6.074;2022-11-11T06:33:37;22.27;;;10.10;;
17618;SDS011;8928;51.678;6.074;2022-11-11T06:36:25;22.50;;;9.73;;
17618;SDS011;8928;51.678;6.074;2022-11-11T06:39:13;20.17;;;9.40;;
17618;SDS011;8928;51.678;6.074;2022-11-11T06:42:00;19.70;;;9.20;;
17618;SDS011;8928;51.678;6.074;2022-11-11T06:44:47;23.07;;;8.73;;
17618;SDS011;8928;51.678;6.074;2022-11-11T06:47:34;22.23;;;8.83;;
17618;SDS011;8928;51.678;6.074;2022-11-11T06:50:21;19.97;;;8.50;;
17618;SDS011;8928;51.678;6.074;2022-11-11T06:53:09;20.50;;;8.50;;
17618;SDS011;8928;51.678;6.074;2022-11-11T06:55:58;21.60;;;8.87;;
17618;SDS011;8928;51.678;6.074;2022-11-11T06:58:45;25.13;;;9.00;;
17618;SDS011;8928;51.678;6.074;2022-11-11T07:01:32;19.97;;;8.53;;
17618;SDS011;8928;51.678;6.074;2022-11-11T07:04:19;19.20;;;8.47;;
17618;SDS011;8928;51.678;6.074;2022-11-11T07:07:03;17.20;;;8.10;;
17618;SDS011;8928;51.678;6.074;2022-11-11T07:09:51;16.73;;;7.67;;
17618;SDS011;8928;51.678;6.074;2022-11-11T07:12:41;18.53;;;7.70;;
17618;SDS011;8928;51.678;6.074;2022-11-11T07:15:28;22.03;;;7.90;;
17618;SDS011;8928;51.678;6.074;2022-11-11T07:18:15;17.93;;;7.50;;
17618;SDS011;8928;51.678;6.074;2022-11-11T07:21:02;19.20;;;7.87;;
17618;SDS011;8928;51.678;6.074;2022-11-11T07:23:50;22.57;;;7.50;;
17618;SDS011;8928;51.678;6.074;2022-11-11T07:26:37;17.90;;;7.43;;
17618;SDS011;8928;51.678;6.074;2022-11-11T07:29:25;19.43;;;7.63;;
17618;SDS011;8928;51.678;6.074;2022-11-11T07:32:13;18.90;;;7.43;;
17618;SDS011;8928;51.678;6.074;2022-11-11T07:35:01;16.60;;;7.70;;
17618;SDS011;8928;51.678;6.074;2022-11-11T07:37:49;17.70;;;8.03;;
17618;SDS011;8928;51.678;6.074;2022-11-11T07:40:36;24.27;;;7.40;;
17618;SDS011;8928;51.678;6.074;2022-11-11T07:43:23;16.80;;;7.43;;
17618;SDS011;8928;51.678;6.074;2022-11-11T07:46:12;19.57;;;7.87;;
17618;SDS011;8928;51.678;6.074;2022-11-11T07:48:59;19.73;;;8.07;;
17618;SDS011;8928;51.678;6.074;2022-11-11T07:51:46;19.03;;;7.97;;
17618;SDS011;8928;51.678;6.074;2022-11-11T07:54:33;19.10;;;7.97;;
17618;SDS011;8928;51.678;6.074;2022-11-11T07:57:20;18.77;;;7.53;;
17618;SDS011;8928;51.678;6.074;2022-11-11T08:00:07;17.80;;;8.03;;
17618;SDS011;8928;51.678;6.074;2022-11-11T08:02:57;18.77;;;8.30;;
17618;SDS011;8928;51.678;6.074;2022-11-11T08:05:44;20.23;;;7.87;;
17618;SDS011;8928;51.678;6.074;2022-11-11T08:08:31;19.20;;;8.13;;
17618;SDS011;8928;51.678;6.074;2022-11-11T08:11:18;23.13;;;8.03;;
17618;SDS011;8928;51.678;6.074;2022-11-11T08:14:25;22.00;;;8.50;;
17618;SDS011;8928;51.678;6.074;2022-11-11T08:17:11;17.40;;;7.80;;
17618;SDS011;8928;51.678;6.074;2022-11-11T08:19:59;18.53;;;8.00;;
17618;SDS011;8928;51.678;6.074;2022-11-11T08:22:46;14.87;;;7.40;;
17618;SDS011;8928;51.678;6.074;2022-11-11T08:25:34;17.13;;;7.50;;
17618;SDS011;8928;51.678;6.074;2022-11-11T08:28:21;15.67;;;7.63;;
17618;SDS011;8928;51.678;6.074;2022-11-11T08:31:08;17.63;;;7.90;;
17618;SDS011;8928;51.678;6.074;2022-11-11T08:33:55;18.40;;;7.70;;
17618;SDS011;8928;51.678;6.074;2022-11-11T08:36:44;20.47;;;7.43;;
17618;SDS011;8928;51.678;6.074;2022-11-11T08:39:31;19.17;;;7.97;;
17618;SDS011;8928;51.678;6.074;2022-11-11T08:42:18;14.87;;;7.60;;
17618;SDS011;8928;51.678;6.074;2022-11-11T08:45:05;16.37;;;7.50;;
17618;SDS011;8928;51.678;6.074;2022-11-11T08:47:53;20.33;;;7.23;;
17618;SDS011;8928;51.678;6.074;2022-11-11T08:50:40;16.20;;;7.50;;
17618;SDS011;8928;51.678;6.074;2022-11-11T08:53:29;16.73;;;7.47;;
17618;SDS011;8928;51.678;6.074;2022-11-11T08:56:16;17.70;;;7.50;;
17618;SDS011;8928;51.678;6.074;2022-11-11T08:59:03;13.00;;;7.13;;
17618;SDS011;8928;51.678;6.074;2022-11-11T09:01:51;16.23;;;6.97;;
17618;SDS011;8928;51.678;6.074;2022-11-11T09:04:39;15.17;;;6.93;;
17618;SDS011;8928;51.678;6.074;2022-11-11T09:07:26;17.83;;;7.20;;
17618;SDS011;8928;51.678;6.074;2022-11-11T09:10:15;18.93;;;7.53;;
17618;SDS011;8928;51.678;6.074;2022-11-11T09:13:02;17.17;;;7.27;;
17618;SDS011;8928;51.678;6.074;2022-11-11T09:15:51;14.03;;;6.93;;
17618;SDS011;8928;51.678;6.074;2022-11-11T09:18:38;15.00;;;7.00;;
17618;SDS011;8928;51.678;6.074;2022-11-11T09:21:25;17.23;;;7.03;;
17618;SDS011;8928;51.678;6.074;2022-11-11T09:24:12;14.47;;;6.60;;
17618;SDS011;8928;51.678;6.074;2022-11-11T09:27:01;14.00;;;5.87;;
17618;SDS011;8928;51.678;6.074;2022-11-11T09:29:48;14.73;;;5.80;;
17618;SDS011;8928;51.678;6.074;2022-11-11T09:32:35;11.10;;;5.43;;
17618;SDS011;8928;51.678;6.074;2022-11-11T09:35:22;9.17;;;5.17;;
17618;SDS011;8928;51.678;6.074;2022-11-11T09:38:09;12.67;;;4.83;;
17618;SDS011;8928;51.678;6.074;2022-11-11T09:41:01;10.23;;;4.83;;
17618;SDS011;8928;51.678;6.074;2022-11-11T09:44:01;12.60;;;4.90;;
17618;SDS011;8928;51.678;6.074;2022-11-11T09:46:50;13.30;;;5.10;;
17618;SDS011;8928;51.678;6.074;2022-11-11T09:49:56;10.20;;;4.50;;
17618;SDS011;8928;51.678;6.074;2022-11-11T09:52:46;9.43;;;4.27;;
17618;SDS011;8928;51.678;6.074;2022-11-11T09:55:38;9.87;;;3.90;;
17618;SDS011;8928;51.678;6.074;2022-11-11T09:58:28;8.70;;;4.10;;
17618;SDS011;8928;51.678;6.074;2022-11-11T10:01:22;10.90;;;4.10;;
17618;SDS011;8928;51.678;6.074;2022-11-11T10:04:14;8.87;;;3.60;;
17618;SDS011;8928;51.678;6.074;2022-11-11T10:07:11;10.87;;;3.50;;
17618;SDS011;8928;51.678;6.074;2022-11-11T10:10:07;9.37;;;3.57;;
17618;SDS011;8928;51.678;6.074;2022-11-11T10:12:59;7.80;;;3.43;;
17618;SDS011;8928;51.678;6.074;2022-11-11T10:15:49;7.67;;;3.77;;
17618;SDS011;8928;51.678;6.074;2022-11-11T10:18:51;8.20;;;3.10;;
17618;SDS011;8928;51.678;6.074;2022-11-11T10:21:49;7.60;;;3.50;;
17618;SDS011;8928;51.678;6.074;2022-11-11T10:24:38;9.17;;;3.80;;
17618;SDS011;8928;51.678;6.074;2022-11-11T10:27:27;7.27;;;3.13;;
17618;SDS011;8928;51.678;6.074;2022-11-11T10:30:16;9.53;;;3.30;;
17618;SDS011;8928;51.678;6.074;2022-11-11T10:33:09;6.50;;;2.97;;
17618;SDS011;8928;51.678;6.074;2022-11-11T10:36:00;6.37;;;2.97;;
17618;SDS011;8928;51.678;6.074;2022-11-11T10:38:51;10.50;;;3.40;;
17618;SDS011;8928;51.678;6.074;2022-11-11T10:41:45;7.07;;;3.50;;
17618;SDS011;8928;51.678;6.074;2022-11-11T10:44:34;7.57;;;3.53;;
17618;SDS011;8928;51.678;6.074;2022-11-11T10:47:24;7.37;;;3.43;;
17618;SDS011;8928;51.678;6.074;2022-11-11T10:50:25;8.20;;;3.50;;
17618;SDS011;8928;51.678;6.074;2022-11-11T10:53:20;6.87;;;3.53;;
17618;SDS011;8928;51.678;6.074;2022-11-11T10:56:13;8.50;;;3.30;;
17618;SDS011;8928;51.678;6.074;2022-11-11T10:59:08;5.70;;;3.30;;
17618;SDS011;8928;51.678;6.074;2022-11-11T11:02:04;10.97;;;3.43;;
17618;SDS011;8928;51.678;6.074;2022-11-11T11:04:56;6.83;;;3.50;;
17618;SDS011;8928;51.678;6.074;2022-11-11T11:07:49;5.97;;;3.40;;
17618;SDS011;8928;51.678;6.074;2022-11-11T11:10:42;8.70;;;3.40;;
17618;SDS011;8928;51.678;6.074;2022-11-11T11:13:33;8.60;;;3.80;;
17618;SDS011;8928;51.678;6.074;2022-11-11T11:16:29;6.57;;;3.67;;
17618;SDS011;8928;51.678;6.074;2022-11-11T11:19:20;7.37;;;3.60;;
17618;SDS011;8928;51.678;6.074;2022-11-11T11:22:09;9.13;;;3.93;;
17618;SDS011;8928;51.678;6.074;2022-11-11T11:25:07;9.17;;;3.93;;
17618;SDS011;8928;51.678;6.074;2022-11-11T11:28:08;9.73;;;5.07;;
17618;SDS011;8928;51.678;6.074;2022-11-11T11:30:57;9.20;;;4.27;;
17618;SDS011;8928;51.678;6.074;2022-11-11T11:33:52;7.10;;;3.33;;
17618;SDS011;8928;51.678;6.074;2022-11-11T11:36:40;7.43;;;3.80;;
17618;SDS011;8928;51.678;6.074;2022-11-11T11:39:30;6.07;;;3.13;;
17618;SDS011;8928;51.678;6.074;2022-11-11T11:45:26;7.87;;;3.30;;
17618;SDS011;8928;51.678;6.074;2022-11-11T11:48:17;8.87;;;3.33;;
17618;SDS011;8928;51.678;6.074;2022-11-11T11:51:16;6.83;;;3.00;;
17618;SDS011;8928;51.678;6.074;2022-11-11T11:54:12;6.30;;;3.03;;
17618;SDS011;8928;51.678;6.074;2022-11-11T11:57:12;6.90;;;3.20;;
17618;SDS011;8928;51.678;6.074;2022-11-11T12:00:12;6.43;;;3.10;;
17618;SDS011;8928;51.678;6.074;2022-11-11T12:03:11;9.63;;;3.57;;
17618;SDS011;8928;51.678;6.074;2022-11-11T12:06:11;8.20;;;3.20;;
17618;SDS011;8928;51.678;6.074;2022-11-11T12:09:06;9.33;;;3.77;;
17618;SDS011;8928;51.678;6.074;2022-11-11T12:12:03;6.47;;;3.00;;
17618;SDS011;8928;51.678;6.074;2022-11-11T12:14:58;11.50;;;3.27;;
17618;SDS011;8928;51.678;6.074;2022-11-11T12:17:59;9.03;;;3.40;;
17618;SDS011;8928;51.678;6.074;2022-11-11T12:21:02;9.93;;;3.10;;
17618;SDS011;8928;51.678;6.074;2022-11-11T12:23:55;7.47;;;3.00;;
17618;SDS011;8928;51.678;6.074;2022-11-11T12:26:46;11.70;;;3.30;;
17618;SDS011;8928;51.678;6.074;2022-11-11T12:29:44;10.10;;;3.50;;
17618;SDS011;8928;51.678;6.074;2022-11-11T12:33:01;7.17;;;3.27;;
17618;SDS011;8928;51.678;6.074;2022-11-11T12:36:15;9.07;;;3.20;;
17618;SDS011;8928;51.678;6.074;2022-11-11T12:39:12;9.33;;;3.33;;
17618;SDS011;8928;51.678;6.074;2022-11-11T12:42:13;6.73;;;3.40;;
17618;SDS011;8928;51.678;6.074;2022-11-11T12:45:10;9.17;;;2.93;;
17618;SDS011;8928;51.678;6.074;2022-11-11T12:48:04;8.67;;;3.20;;
17618;SDS011;8928;51.678;6.074;2022-11-11T12:51:01;7.97;;;3.20;;
17618;SDS011;8928;51.678;6.074;2022-11-11T12:53:58;9.63;;;3.30;;
17618;SDS011;8928;51.678;6.074;2022-11-11T12:56:54;5.07;;;3.00;;
17618;SDS011;8928;51.678;6.074;2022-11-11T12:59:54;7.37;;;2.87;;
17618;SDS011;8928;51.678;6.074;2022-11-11T13:06:18;9.20;;;3.17;;
17618;SDS011;8928;51.678;6.074;2022-11-11T13:09:28;6.50;;;2.90;;
17618;SDS011;8928;51.678;6.074;2022-11-11T13:12:23;7.27;;;2.80;;
17618;SDS011;8928;51.678;6.074;2022-11-11T13:15:16;7.33;;;2.57;;
17618;SDS011;8928;51.678;6.074;2022-11-11T13:18:09;7.57;;;2.80;;
17618;SDS011;8928;51.678;6.074;2022-11-11T13:21:02;6.93;;;3.07;;
17618;SDS011;8928;51.678;6.074;2022-11-11T13:23:52;9.13;;;3.10;;
17618;SDS011;8928;51.678;6.074;2022-11-11T13:26:41;6.27;;;2.83;;
17618;SDS011;8928;51.678;6.074;2022-11-11T13:29:47;6.50;;;3.10;;
17618;SDS011;8928;51.678;6.074;2022-11-11T13:32:49;8.10;;;2.80;;
17618;SDS011;8928;51.678;6.074;2022-11-11T13:35:41;7.87;;;2.87;;
17618;SDS011;8928;51.678;6.074;2022-11-11T13:38:32;6.03;;;2.50;;
17618;SDS011;8928;51.678;6.074;2022-11-11T13:41:22;6.33;;;2.90;;
17618;SDS011;8928;51.678;6.074;2022-11-11T13:44:18;7.57;;;3.80;;
17618;SDS011;8928;51.678;6.074;2022-11-11T13:47:10;7.83;;;3.13;;
17618;SDS011;8928;51.678;6.074;2022-11-11T13:50:04;9.00;;;3.33;;
17618;SDS011;8928;51.678;6.074;2022-11-11T13:52:54;4.73;;;2.70;;
17618;SDS011;8928;51.678;6.074;2022-11-11T13:55:45;5.80;;;2.80;;
17618;SDS011;8928;51.678;6.074;2022-11-11T13:58:33;6.37;;;2.73;;
17618;SDS011;8928;51.678;6.074;2022-11-11T14:01:25;5.37;;;2.63;;
17618;SDS011;8928;51.678;6.074;2022-11-11T14:04:19;6.67;;;2.80;;
17618;SDS011;8928;51.678;6.074;2022-11-11T14:07:06;9.10;;;2.50;;
17618;SDS011;8928;51.678;6.074;2022-11-11T14:09:54;7.40;;;2.50;;
17618;SDS011;8928;51.678;6.074;2022-11-11T14:12:47;8.43;;;2.67;;
17618;SDS011;8928;51.678;6.074;2022-11-11T14:15:41;4.30;;;2.33;;
17618;SDS011;8928;51.678;6.074;2022-11-11T14:18:38;3.97;;;2.27;;
17618;SDS011;8928;51.678;6.074;2022-11-11T14:21:41;3.57;;;2.30;;
17618;SDS011;8928;51.678;6.074;2022-11-11T14:24:33;5.60;;;2.60;;
17618;SDS011;8928;51.678;6.074;2022-11-11T14:27:24;4.13;;;2.33;;
17618;SDS011;8928;51.678;6.074;2022-11-11T14:30:32;5.90;;;2.43;;
17618;SDS011;8928;51.678;6.074;2022-11-11T14:33:27;8.00;;;2.80;;
17618;SDS011;8928;51.678;6.074;2022-11-11T14:36:26;5.67;;;2.37;;
17618;SDS011;8928;51.678;6.074;2022-11-11T14:42:43;3.63;;;2.20;;
17618;SDS011;8928;51.678;6.074;2022-11-11T14:48:56;7.23;;;2.40;;
17618;SDS011;8928;51.678;6.074;2022-11-11T14:51:47;6.50;;;2.17;;
17618;SDS011;8928;51.678;6.074;2022-11-11T14:54:45;8.47;;;2.40;;
17618;SDS011;8928;51.678;6.074;2022-11-11T14:57:40;5.43;;;2.43;;
17618;SDS011;8928;51.678;6.074;2022-11-11T15:00:33;7.13;;;2.37;;
17618;SDS011;8928;51.678;6.074;2022-11-11T15:03:32;4.87;;;2.40;;
17618;SDS011;8928;51.678;6.074;2022-11-11T15:06:24;6.20;;;2.60;;
17618;SDS011;8928;51.678;6.074;2022-11-11T15:09:23;6.07;;;2.47;;
17618;SDS011;8928;51.678;6.074;2022-11-11T15:12:27;8.33;;;2.50;;
17618;SDS011;8928;51.678;6.074;2022-11-11T15:15:23;9.33;;;2.70;;
17618;SDS011;8928;51.678;6.074;2022-11-11T15:18:17;4.43;;;2.60;;
17618;SDS011;8928;51.678;6.074;2022-11-11T15:21:13;4.63;;;2.63;;
17618;SDS011;8928;51.678;6.074;2022-11-11T15:24:09;5.90;;;2.50;;
17618;SDS011;8928;51.678;6.074;2022-11-11T15:27:12;5.30;;;2.77;;
17618;SDS011;8928;51.678;6.074;2022-11-11T15:30:11;5.37;;;2.73;;
17618;SDS011;8928;51.678;6.074;2022-11-11T15:33:03;5.27;;;2.53;;
17618;SDS011;8928;51.678;6.074;2022-11-11T15:35:57;6.70;;;2.57;;
17618;SDS011;8928;51.678;6.074;2022-11-11T15:38:49;6.87;;;2.60;;
17618;SDS011;8928;51.678;6.074;2022-11-11T15:41:37;9.90;;;2.80;;
17618;SDS011;8928;51.678;6.074;2022-11-11T15:44:28;7.93;;;2.80;;
17618;SDS011;8928;51.678;6.074;2022-11-11T15:47:18;7.27;;;2.67;;
17618;SDS011;8928;51.678;6.074;2022-11-11T15:50:17;5.33;;;2.47;;
17618;SDS011;8928;51.678;6.074;2022-11-11T15:53:44;13.10;;;2.80;;
17618;SDS011;8928;51.678;6.074;2022-11-11T15:56:32;7.77;;;2.67;;
17618;SDS011;8928;51.678;6.074;2022-11-11T15:59:21;8.17;;;2.50;;
17618;SDS011;8928;51.678;6.074;2022-11-11T16:02:13;6.43;;;2.87;;
17618;SDS011;8928;51.678;6.074;2022-11-11T16:05:05;5.50;;;2.70;;
17618;SDS011;8928;51.678;6.074;2022-11-11T16:07:57;6.23;;;3.13;;
17618;SDS011;8928;51.678;6.074;2022-11-11T16:10:53;7.90;;;3.30;;
17618;SDS011;8928;51.678;6.074;2022-11-11T16:13:43;7.23;;;3.10;;
17618;SDS011;8928;51.678;6.074;2022-11-11T16:16:34;9.60;;;3.40;;
17618;SDS011;8928;51.678;6.074;2022-11-11T16:19:28;8.13;;;3.90;;
17618;SDS011;8928;51.678;6.074;2022-11-11T16:22:20;8.17;;;4.10;;
17618;SDS011;8928;51.678;6.074;2022-11-11T16:25:12;8.60;;;3.80;;
17618;SDS011;8928;51.678;6.074;2022-11-11T16:28:02;9.37;;;3.90;;
17618;SDS011;8928;51.678;6.074;2022-11-11T16:30:50;9.03;;;3.90;;
17618;SDS011;8928;51.678;6.074;2022-11-11T16:33:37;11.10;;;4.40;;
17618;SDS011;8928;51.678;6.074;2022-11-11T16:36:25;9.93;;;3.93;;
17618;SDS011;8928;51.678;6.074;2022-11-11T16:39:13;9.90;;;3.90;;
17618;SDS011;8928;51.678;6.074;2022-11-11T16:42:01;7.80;;;3.87;;
17618;SDS011;8928;51.678;6.074;2022-11-11T16:44:53;12.77;;;4.27;;
17618;SDS011;8928;51.678;6.074;2022-11-11T16:47:43;6.47;;;3.97;;
17618;SDS011;8928;51.678;6.074;2022-11-11T16:50:32;9.90;;;4.10;;
17618;SDS011;8928;51.678;6.074;2022-11-11T16:53:28;11.07;;;4.37;;
17618;SDS011;8928;51.678;6.074;2022-11-11T16:56:20;10.50;;;4.50;;
17618;SDS011;8928;51.678;6.074;2022-11-11T16:59:11;14.60;;;5.60;;
17618;SDS011;8928;51.678;6.074;2022-11-11T17:02:01;14.70;;;7.30;;
17618;SDS011;8928;51.678;6.074;2022-11-11T17:04:49;24.63;;;11.90;;
17618;SDS011;8928;51.678;6.074;2022-11-11T17:07:38;40.43;;;16.43;;
17618;SDS011;8928;51.678;6.074;2022-11-11T17:10:28;34.07;;;14.07;;
17618;SDS011;8928;51.678;6.074;2022-11-11T17:13:24;34.13;;;14.77;;
17618;SDS011;8928;51.678;6.074;2022-11-11T17:16:12;34.83;;;14.70;;
17618;SDS011;8928;51.678;6.074;2022-11-11T17:18:59;23.93;;;12.97;;
17618;SDS011;8928;51.678;6.074;2022-11-11T17:21:47;28.63;;;12.80;;
17618;SDS011;8928;51.678;6.074;2022-11-11T17:24:34;34.73;;;20.33;;
17618;SDS011;8928;51.678;6.074;2022-11-11T17:27:23;27.17;;;13.47;;
17618;SDS011;8928;51.678;6.074;2022-11-11T17:30:11;30.80;;;17.17;;
17618;SDS011;8928;51.678;6.074;2022-11-11T17:32:58;24.43;;;11.77;;